createdAt,value
2023-06-29T00:06:29.079Z,4.63
2023-06-29T00:13:11.714Z,4.15
2023-06-29T00:19:54.586Z,4.60
2023-06-29T00:26:37.224Z,4.88
2023-06-29T00:33:20.761Z,4.78
2023-06-29T00:40:04.329Z,4.75
2023-06-29T00:46:48.287Z,5.65
2023-06-29T00:53:31.118Z,5.10
2023-06-29T01:00:14.490Z,4.75
2023-06-29T01:07:06.596Z,4.10
2023-06-29T01:13:52.234Z,4.03
2023-06-29T01:20:36.004Z,4.25
2023-06-29T01:27:22.536Z,4.10
2023-06-29T01:34:05.203Z,5.18
2023-06-29T01:40:49.655Z,4.20
2023-06-29T01:47:33.272Z,4.50
2023-06-29T01:54:15.908Z,4.22
2023-06-29T02:00:58.642Z,4.80
2023-06-29T02:07:41.493Z,4.47
2023-06-29T02:14:24.433Z,5.10
2023-06-29T02:21:06.998Z,5.10
2023-06-29T02:27:49.570Z,4.65
2023-06-29T02:34:32.273Z,4.88
2023-06-29T02:41:15.614Z,4.10
2023-06-29T02:47:58.547Z,4.97
2023-06-29T02:54:41.367Z,4.95
2023-06-29T03:01:24.104Z,5.30
2023-06-29T03:08:09.403Z,5.07
2023-06-29T03:14:52.082Z,5.45
2023-06-29T03:21:34.824Z,4.40
2023-06-29T03:28:17.459Z,4.75
2023-06-29T03:35:00.121Z,4.90
2023-06-29T03:41:42.718Z,5.22
2023-06-29T03:55:11.522Z,4.85
2023-06-29T04:01:54.155Z,5.03
2023-06-29T04:08:36.954Z,4.10
2023-06-29T04:15:19.567Z,5.13
2023-06-29T04:22:02.204Z,5.75
2023-06-29T04:28:46.163Z,4.50
2023-06-29T04:35:28.755Z,4.65
2023-06-29T04:42:14.542Z,4.88
2023-06-29T04:48:57.341Z,4.63
2023-06-29T04:55:40.929Z,4.90
2023-06-29T05:02:23.703Z,4.13
2023-06-29T05:09:06.370Z,3.30
2023-06-29T05:15:49.405Z,3.75
2023-06-29T05:22:32.400Z,4.05
2023-06-29T05:29:14.963Z,3.53
2023-06-29T05:35:57.582Z,3.80
2023-06-29T05:42:40.169Z,4.05
2023-06-29T05:49:23.256Z,3.63
2023-06-29T05:56:05.839Z,3.97
2023-06-29T06:02:48.936Z,3.70
2023-06-29T06:09:31.646Z,3.70
2023-06-29T06:16:14.361Z,3.85
2023-06-29T06:22:58.145Z,4.47
2023-06-29T06:29:40.763Z,3.72
2023-06-29T06:36:23.981Z,3.95
2023-06-29T06:43:06.564Z,3.60
2023-06-29T06:49:49.194Z,3.08
2023-06-29T06:56:32.472Z,3.50
2023-06-29T07:03:15.179Z,3.45
2023-06-29T07:09:57.859Z,3.35
2023-06-29T07:16:40.530Z,2.80
2023-06-29T07:30:09.598Z,3.10
2023-06-29T07:36:53.000Z,2.90
2023-06-29T07:43:35.831Z,3.22
2023-06-29T07:50:19.572Z,2.50
2023-06-29T08:04:00.288Z,2.60
2023-06-29T08:10:44.826Z,2.28
2023-06-29T08:17:27.726Z,2.33
2023-06-29T08:24:16.920Z,2.55
2023-06-29T08:31:00.638Z,2.53
2023-06-29T08:37:43.356Z,3.10
2023-06-29T08:44:26.152Z,3.33
2023-06-29T08:51:11.580Z,3.42
2023-06-29T08:57:55.584Z,2.90
2023-06-29T09:04:38.139Z,2.85
2023-06-29T09:11:20.719Z,3.08
2023-06-29T09:18:03.463Z,2.70
2023-06-29T09:24:57.688Z,2.53
2023-06-29T09:31:55.747Z,2.70
2023-06-29T09:38:38.897Z,2.20
2023-06-29T09:45:22.326Z,2.50
2023-06-29T09:52:06.127Z,2.60
2023-06-29T09:58:48.832Z,2.60
2023-06-29T10:05:33.067Z,2.30
2023-06-29T10:12:17.508Z,2.20
2023-06-29T10:19:12.146Z,2.28
2023-06-29T10:25:55.394Z,2.05
2023-06-29T10:32:42.313Z,2.30
2023-06-29T10:39:42.996Z,2.30
2023-06-29T10:46:50.855Z,2.30
2023-06-29T10:53:35.873Z,3.55
2023-06-29T11:00:18.959Z,2.92
2023-06-29T11:07:10.928Z,2.97
2023-06-29T11:13:54.594Z,2.75
2023-06-29T11:20:40.785Z,3.55
2023-06-29T11:27:23.511Z,3.17
2023-06-29T11:34:06.138Z,3.50
2023-06-29T11:40:48.701Z,3.97
2023-06-29T11:47:33.599Z,3.20
2023-06-29T11:54:16.953Z,3.20
2023-06-29T12:00:59.606Z,4.05
2023-06-29T12:07:47.650Z,4.13
2023-06-29T12:14:34.243Z,3.30
2023-06-29T12:21:23.499Z,3.72
2023-06-29T12:28:06.505Z,4.10
2023-06-29T12:34:51.034Z,3.60
2023-06-29T12:41:36.519Z,3.67
2023-06-29T12:48:19.085Z,3.00
2023-06-29T12:55:01.782Z,2.80
2023-06-29T13:01:44.348Z,3.17
2023-06-29T13:08:27.510Z,3.13
2023-06-29T13:15:10.548Z,2.83
2023-06-29T13:21:54.477Z,3.47
2023-06-29T13:28:37.116Z,3.00
2023-06-29T13:35:19.754Z,3.20
2023-06-29T13:42:02.393Z,3.08
2023-06-29T13:48:45.044Z,3.15
2023-06-29T13:55:29.544Z,3.22
2023-06-29T14:02:12.232Z,3.40
2023-06-29T14:08:54.933Z,3.00
2023-06-29T14:15:38.051Z,3.13
2023-06-29T14:22:21.473Z,3.15
2023-06-29T14:29:04.099Z,3.30
2023-06-29T14:35:46.827Z,3.10
2023-06-29T14:42:31.383Z,3.17
2023-06-29T14:49:14.061Z,3.40
2023-06-29T14:56:07.875Z,3.60
2023-06-29T15:02:50.577Z,3.50
2023-06-29T15:09:33.271Z,3.15
2023-06-29T15:16:15.986Z,3.20
2023-06-29T15:22:58.652Z,3.35
2023-06-29T15:29:41.221Z,3.22
2023-06-29T15:36:23.949Z,2.80
2023-06-29T15:43:06.768Z,3.00
2023-06-29T15:49:49.434Z,3.50
2023-06-29T15:56:32.200Z,2.80
2023-06-29T16:03:15.032Z,3.58
2023-06-29T16:09:57.737Z,3.30
2023-06-29T16:16:40.490Z,2.80
2023-06-29T16:23:23.131Z,3.40
2023-06-29T16:30:07.492Z,2.60
2023-06-29T16:36:50.112Z,2.63
2023-06-29T16:43:32.909Z,2.83
2023-06-29T16:50:15.610Z,3.45
2023-06-29T16:56:58.280Z,3.28
2023-06-29T17:03:41.128Z,2.80
2023-06-29T17:10:23.748Z,2.60
2023-06-29T17:17:06.675Z,3.25
2023-06-29T17:23:53.699Z,2.80
2023-06-29T17:30:36.835Z,2.85
2023-06-29T17:37:19.493Z,2.85
2023-06-29T17:44:02.164Z,2.95
2023-06-29T17:50:44.827Z,4.20
2023-06-29T17:57:27.961Z,6.05
2023-06-29T18:04:10.905Z,3.70
2023-06-29T18:10:53.707Z,2.85
2023-06-29T18:17:36.480Z,2.75
2023-06-29T18:24:19.144Z,2.80
2023-06-29T18:31:01.918Z,2.65
2023-06-29T18:37:46.382Z,3.28
2023-06-29T18:44:29.040Z,2.83
2023-06-29T18:51:11.744Z,2.70
2023-06-29T18:57:54.507Z,3.13
2023-06-29T19:04:37.263Z,4.32
2023-06-29T19:11:20.308Z,3.13
2023-06-29T19:18:04.514Z,3.30
2023-06-29T19:24:47.407Z,3.13
2023-06-29T19:31:30.323Z,3.40
2023-06-29T19:38:13.582Z,3.60
2023-06-29T19:44:56.358Z,2.90
2023-06-29T19:51:40.409Z,3.30
2023-06-29T19:58:27.065Z,3.28
2023-06-29T20:05:10.361Z,3.00
2023-06-29T20:11:53.153Z,3.10
2023-06-29T20:18:35.867Z,3.50
2023-06-29T20:25:18.541Z,3.25
2023-06-29T20:32:01.688Z,3.33
2023-06-29T20:38:44.635Z,3.17
2023-06-29T20:45:27.543Z,3.42
2023-06-29T20:52:10.223Z,3.67
2023-06-29T20:58:53.145Z,3.20
2023-06-29T21:05:37.165Z,3.25
2023-06-29T21:12:20.199Z,3.42
2023-06-29T21:19:03.488Z,3.78
2023-06-29T21:25:46.507Z,3.70
2023-06-29T21:32:29.818Z,3.70
2023-06-29T21:39:12.389Z,3.33
2023-06-29T21:45:54.969Z,3.30
2023-06-29T21:52:40.116Z,3.38
2023-06-29T21:59:22.834Z,2.70
2023-06-29T22:06:05.531Z,3.92
2023-06-29T22:12:49.336Z,3.58
2023-06-29T22:19:34.089Z,3.33
2023-06-29T22:26:33.483Z,3.55
2023-06-29T22:33:19.022Z,4.10
2023-06-29T22:40:03.449Z,3.97
2023-06-29T22:46:46.326Z,3.20
2023-06-29T22:53:30.080Z,3.80
2023-06-29T23:00:13.537Z,4.30
2023-06-29T23:06:56.146Z,3.33
2023-06-29T23:13:41.392Z,3.45
2023-06-29T23:20:28.502Z,3.58
2023-06-29T23:27:11.107Z,3.80
2023-06-29T23:33:53.678Z,3.65
2023-06-29T23:40:37.822Z,3.78
2023-06-29T23:47:20.439Z,3.55
2023-06-29T23:54:04.412Z,3.60
